Time;durP1;ratioP1;P1;durP2;ratioP2;P2;SDS_P1;SDS_P2;PMS_P1;PMS_P2;Temp;Humidity;BMP_temperature;BMP_pressure;BME280_temperature;BME280_humidity;BME280_pressure;Samples;Min_cycle;Max_cycle;Signal;HPM_P1;HPM_P2
2022/09/12 00:01:22;;;;;;;10.48;5.45;;;;;;;;;;4999935;28;20022;-65
2022/09/12 00:03:51;;;;;;;10.52;6.57;;;;;;;;;;5008575;28;20038;-65
2022/09/12 00:06:19;;;;;;;11.13;5.80;;;;;;;;;;4997832;28;20021;-65
2022/09/12 00:08:45;;;;;;;8.95;5.03;;;;;;;;;;5003610;28;20081;-65
2022/09/12 00:11:12;;;;;;;11.13;5.30;;;;;;;;;;5004794;28;20030;-65
2022/09/12 00:13:39;;;;;;;8.32;5.13;;;;;;;;;;4996605;28;20049;-65
2022/09/12 00:16:05;;;;;;;12.25;5.90;;;;;;;;;;5019481;28;20053;-64
2022/09/12 00:18:32;;;;;;;7.97;4.75;;;;;;;;;;5005844;28;20023;-64
2022/09/12 00:21:01;;;;;;;7.57;5.47;;;;;;;;;;5002453;28;20029;-64
2022/09/12 00:23:27;;;;;;;11.10;6.00;;;;;;;;;;5001881;28;20025;-65
2022/09/12 00:25:53;;;;;;;10.13;5.85;;;;;;;;;;4995667;28;20290;-65
2022/09/12 00:28:19;;;;;;;10.55;6.60;;;;;;;;;;5007353;28;20030;-65
2022/09/12 00:30:47;;;;;;;10.35;5.80;;;;;;;;;;5000427;28;20033;-65
2022/09/12 00:33:14;;;;;;;8.15;5.88;;;;;;;;;;5003819;28;20074;-65
2022/09/12 00:35:44;;;;;;;13.82;5.82;;;;;;;;;;5015862;28;20025;-64
2022/09/12 00:38:11;;;;;;;10.18;5.97;;;;;;;;;;5009167;28;20105;-65
2022/09/12 00:40:37;;;;;;;12.82;7.15;;;;;;;;;;5005292;28;20038;-64
2022/09/12 00:43:04;;;;;;;9.52;5.38;;;;;;;;;;4995914;28;20446;-65
2022/09/12 00:45:30;;;;;;;9.23;6.38;;;;;;;;;;5006275;28;20070;-64
2022/09/12 00:48:01;;;;;;;11.38;6.13;;;;;;;;;;5009337;28;20089;-65
2022/09/12 00:50:27;;;;;;;10.00;6.00;;;;;;;;;;5002821;28;20034;-64
2022/09/12 00:52:57;;;;;;;13.38;6.38;;;;;;;;;;5014991;28;20041;-64
2022/09/12 00:55:40;;;;;;;13.00;6.70;;;;;;;;;;4999753;28;20050;-65
2022/09/12 00:58:09;;;;;;;10.20;6.35;;;;;;;;;;5007895;28;20034;-65
2022/09/12 01:00:35;;;;;;;8.95;6.63;;;;;;;;;;4999568;28;20842;-65
2022/09/12 01:03:04;;;;;;;9.10;5.97;;;;;;;;;;5002312;28;20038;-65
2022/09/12 01:05:33;;;;;;;13.20;6.32;;;;;;;;;;5005639;28;20029;-65
2022/09/12 01:08:00;;;;;;;11.82;6.47;;;;;;;;;;4994903;28;20058;-65
2022/09/12 01:10:26;;;;;;;13.30;5.72;;;;;;;;;;5015110;28;20084;-65
2022/09/12 01:12:53;;;;;;;11.05;6.25;;;;;;;;;;5007508;28;20033;-65
2022/09/12 01:15:19;;;;;;;14.20;6.53;;;;;;;;;;5007205;28;20497;-65
2022/09/12 01:17:48;;;;;;;9.85;6.05;;;;;;;;;;5000388;28;20117;-65
2022/09/12 01:20:24;;;;;;;9.30;6.05;;;;;;;;;;5014181;28;20079;-65
2022/09/12 01:22:50;;;;;;;10.57;6.03;;;;;;;;;;5008126;28;20398;-64
2022/09/12 01:25:22;;;;;;;12.45;6.50;;;;;;;;;;5006314;28;20119;-65
2022/09/12 01:27:54;;;;;;;10.23;5.97;;;;;;;;;;5031513;28;20092;-65
2022/09/12 01:30:35;;;;;;;10.95;6.40;;;;;;;;;;5027780;28;20485;-65
2022/09/12 01:33:08;;;;;;;11.52;7.00;;;;;;;;;;5006210;28;20084;-64
2022/09/12 01:35:53;;;;;;;12.63;6.47;;;;;;;;;;5008360;28;20029;-65
2022/09/12 01:38:35;;;;;;;11.75;5.88;;;;;;;;;;4998510;28;20038;-65
2022/09/12 01:41:01;;;;;;;14.95;5.95;;;;;;;;;;5002865;28;20096;-65
2022/09/12 01:43:30;;;;;;;10.52;6.05;;;;;;;;;;4995258;28;20050;-65
2022/09/12 01:46:03;;;;;;;11.43;5.68;;;;;;;;;;4995080;28;20045;-65
2022/09/12 01:48:31;;;;;;;9.65;6.32;;;;;;;;;;4995029;28;20058;-65
2022/09/12 01:51:07;;;;;;;9.30;6.07;;;;;;;;;;4995029;28;20109;-65
2022/09/12 01:53:36;;;;;;;8.05;6.15;;;;;;;;;;4999392;28;20025;-65
2022/09/12 01:56:05;;;;;;;9.88;6.07;;;;;;;;;;5013978;28;20022;-65
2022/09/12 01:58:52;;;;;;;11.38;6.30;;;;;;;;;;5014436;28;20109;-65
2022/09/12 02:01:30;;;;;;;13.73;6.43;;;;;;;;;;5012637;28;20022;-65
2022/09/12 02:04:00;;;;;;;11.25;5.40;;;;;;;;;;5014292;28;20393;-65
2022/09/12 02:06:31;;;;;;;9.50;5.85;;;;;;;;;;5014124;28;20028;-65
2022/09/12 02:09:01;;;;;;;8.65;5.38;;;;;;;;;;5028861;28;20174;-65
2022/09/12 02:11:31;;;;;;;9.35;6.00;;;;;;;;;;5010881;28;20101;-65
2022/09/12 02:14:01;;;;;;;12.13;5.68;;;;;;;;;;5001567;28;20450;-64
2022/09/12 02:16:33;;;;;;;10.70;5.38;;;;;;;;;;5003237;28;20101;-64
2022/09/12 02:19:02;;;;;;;9.48;5.32;;;;;;;;;;5009917;28;20038;-65
2022/09/12 02:21:31;;;;;;;13.77;5.88;;;;;;;;;;4997010;28;20030;-65
2022/09/12 02:23:59;;;;;;;11.30;6.28;;;;;;;;;;5007379;28;20049;-64
2022/09/12 02:26:30;;;;;;;11.73;5.55;;;;;;;;;;5012156;28;20017;-65
2022/09/12 02:28:57;;;;;;;9.50;5.22;;;;;;;;;;5018713;28;20133;-65
2022/09/12 02:31:26;;;;;;;6.28;5.13;;;;;;;;;;4997369;28;20038;-65
2022/09/12 02:33:52;;;;;;;8.10;5.70;;;;;;;;;;5008192;28;20049;-65
2022/09/12 02:36:30;;;;;;;9.40;5.13;;;;;;;;;;5004573;28;20031;-65
2022/09/12 02:38:56;;;;;;;16.48;6.20;;;;;;;;;;5008135;28;20088;-65
2022/09/12 02:41:23;;;;;;;12.73;5.28;;;;;;;;;;5011754;28;20101;-65
2022/09/12 02:43:49;;;;;;;9.02;5.47;;;;;;;;;;4997244;28;20379;-65
2022/09/12 02:46:18;;;;;;;10.38;5.18;;;;;;;;;;5012518;28;20033;-65
2022/09/12 02:48:44;;;;;;;12.20;6.90;;;;;;;;;;5001534;28;20045;-65
2022/09/12 02:51:10;;;;;;;9.88;5.43;;;;;;;;;;5009829;28;20033;-65
2022/09/12 02:53:38;;;;;;;8.90;5.78;;;;;;;;;;4996604;28;20028;-65
2022/09/12 02:56:10;;;;;;;8.15;5.20;;;;;;;;;;5006772;28;20053;-65
2022/09/12 02:58:36;;;;;;;13.93;6.43;;;;;;;;;;5004738;28;20034;-65
2022/09/12 03:01:15;;;;;;;9.38;5.38;;;;;;;;;;4999007;28;20034;-65
2022/09/12 03:03:57;;;;;;;9.77;6.07;;;;;;;;;;5009648;28;20483;-65
2022/09/12 03:06:29;;;;;;;11.38;5.03;;;;;;;;;;5008481;28;20025;-65
2022/09/12 03:08:56;;;;;;;;;;;;;;;;;;5014678;28;20061;-65
2022/09/12 03:11:37;;;;;;;9.98;5.82;;;;;;;;;;5002607;28;19906;-65
2022/09/12 03:14:14;;;;;;;11.18;6.03;;;;;;;;;;5011953;28;20034;-65
2022/09/12 03:16:58;;;;;;;12.57;5.57;;;;;;;;;;5035427;28;20037;-65
2022/09/12 03:19:27;;;;;;;11.48;5.57;;;;;;;;;;5008373;28;20072;-65
2022/09/12 03:21:56;;;;;;;10.60;5.70;;;;;;;;;;5008688;28;20029;-65
2022/09/12 03:24:32;;;;;;;11.73;5.55;;;;;;;;;;5004262;28;20117;-65
2022/09/12 03:27:15;;;;;;;14.05;6.05;;;;;;;;;;5006403;28;20517;-65
2022/09/12 03:29:42;;;;;;;8.73;5.28;;;;;;;;;;4999363;28;21619;-65
2022/09/12 03:32:08;;;;;;;9.07;5.22;;;;;;;;;;5005520;28;20439;-65
2022/09/12 03:34:35;;;;;;;10.40;5.78;;;;;;;;;;5001202;28;20034;-65
2022/09/12 03:37:01;;;;;;;12.88;5.80;;;;;;;;;;4999778;28;20027;-65
2022/09/12 03:39:27;;;;;;;12.00;6.13;;;;;;;;;;5006748;28;20040;-65
2022/09/12 03:41:54;;;;;;;13.80;5.95;;;;;;;;;;5005989;28;20022;-65
2022/09/12 03:44:20;;;;;;;13.63;6.00;;;;;;;;;;4999999;28;20465;-65
2022/09/12 03:46:47;;;;;;;10.02;5.70;;;;;;;;;;5003001;28;20045;-65
2022/09/12 03:49:13;;;;;;;9.20;6.10;;;;;;;;;;5004173;28;20038;-65
2022/09/12 03:51:39;;;;;;;15.27;6.30;;;;;;;;;;5001521;28;20522;-65
2022/09/12 03:54:05;;;;;;;9.43;5.60;;;;;;;;;;5004396;28;20024;-67
2022/09/12 03:56:32;;;;;;;9.77;5.40;;;;;;;;;;4996221;28;20072;-67
2022/09/12 03:58:58;;;;;;;7.72;5.57;;;;;;;;;;5008150;28;20029;-67
2022/09/12 04:01:24;;;;;;;8.75;5.50;;;;;;;;;;5005859;28;20108;-67
2022/09/12 04:03:51;;;;;;;9.68;6.07;;;;;;;;;;5000625;28;20026;-65
2022/09/12 04:06:18;;;;;;;16.33;6.78;;;;;;;;;;4998278;28;20019;-65
2022/09/12 04:08:47;;;;;;;12.48;6.00;;;;;;;;;;5001476;28;20215;-65
2022/09/12 04:11:14;;;;;;;7.95;5.50;;;;;;;;;;5007813;28;20387;-65
2022/09/12 04:13:41;;;;;;;9.10;6.03;;;;;;;;;;5000576;28;20026;-65
2022/09/12 04:16:08;;;;;;;12.20;6.70;;;;;;;;;;5008231;28;20066;-65
2022/09/12 04:18:34;;;;;;;13.68;5.50;;;;;;;;;;5000229;28;20050;-65
2022/09/12 04:21:08;;;;;;;8.30;5.53;;;;;;;;;;5005321;28;20030;-65
2022/09/12 04:23:34;;;;;;;8.68;5.47;;;;;;;;;;5001788;28;20037;-64
2022/09/12 04:26:01;;;;;;;9.70;5.13;;;;;;;;;;5003054;28;20022;-64
2022/09/12 04:28:28;;;;;;;8.23;4.82;;;;;;;;;;4997796;28;20121;-65
2022/09/12 04:30:54;;;;;;;7.30;5.07;;;;;;;;;;5007905;28;20432;-65
2022/09/12 04:33:20;;;;;;;8.38;5.63;;;;;;;;;;5013665;28;20062;-64
2022/09/12 04:35:47;;;;;;;9.93;5.53;;;;;;;;;;5003003;28;20109;-64
2022/09/12 04:38:13;;;;;;;9.35;4.85;;;;;;;;;;5004625;28;20037;-65
2022/09/12 04:40:40;;;;;;;9.05;4.85;;;;;;;;;;4997350;28;20056;-65
2022/09/12 04:43:06;;;;;;;8.75;4.97;;;;;;;;;;5012327;28;20038;-65
2022/09/12 04:45:33;;;;;;;8.80;4.85;;;;;;;;;;5013744;28;20014;-65
2022/09/12 04:47:59;;;;;;;7.40;4.05;;;;;;;;;;5005762;28;20149;-64
2022/09/12 04:50:25;;;;;;;10.73;5.25;;;;;;;;;;5013299;28;20030;-65
2022/09/12 04:52:52;;;;;;;9.13;4.68;;;;;;;;;;5007251;28;20669;-64
2022/09/12 04:55:19;;;;;;;7.07;4.50;;;;;;;;;;5015179;28;20026;-65
2022/09/12 04:57:45;;;;;;;7.22;4.38;;;;;;;;;;5018463;28;20505;-65
2022/09/12 05:00:12;;;;;;;6.57;4.75;;;;;;;;;;5008030;28;20061;-66
2022/09/12 05:02:38;;;;;;;8.20;4.88;;;;;;;;;;5010598;28;20022;-65
2022/09/12 05:05:05;;;;;;;7.57;5.00;;;;;;;;;;5016392;28;20104;-65
2022/09/12 05:07:31;;;;;;;10.68;5.53;;;;;;;;;;5010706;28;20026;-64
2022/09/12 05:09:57;;;;;;;6.88;4.97;;;;;;;;;;5019390;28;20840;-65
2022/09/12 05:12:23;;;;;;;7.60;5.07;;;;;;;;;;5005230;28;20054;-65
2022/09/12 05:14:50;;;;;;;9.05;5.00;;;;;;;;;;5007505;28;20018;-65
2022/09/12 05:17:16;;;;;;;7.55;4.57;;;;;;;;;;5012979;28;20513;-65
2022/09/12 05:19:42;;;;;;;9.65;5.28;;;;;;;;;;5008710;28;20019;-64
2022/09/12 05:22:09;;;;;;;6.55;4.88;;;;;;;;;;5014604;28;20048;-65
2022/09/12 05:24:38;;;;;;;10.48;4.85;;;;;;;;;;5012386;28;20017;-65
2022/09/12 05:27:04;;;;;;;12.70;5.10;;;;;;;;;;5001651;28;20057;-65
2022/09/12 05:29:30;;;;;;;10.07;4.68;;;;;;;;;;5007840;28;20445;-64
2022/09/12 05:31:57;;;;;;;11.18;5.43;;;;;;;;;;5003574;28;20128;-65
2022/09/12 05:34:23;;;;;;;9.35;5.00;;;;;;;;;;5012729;28;20493;-65
2022/09/12 05:36:49;;;;;;;10.80;4.85;;;;;;;;;;5000830;28;20034;-65
2022/09/12 05:39:15;;;;;;;12.25;4.68;;;;;;;;;;5012061;28;20038;-65
2022/09/12 05:41:41;;;;;;;7.53;4.25;;;;;;;;;;5010940;28;20021;-65
2022/09/12 05:44:10;;;;;;;10.00;4.65;;;;;;;;;;5015091;28;20026;-65
2022/09/12 05:46:40;;;;;;;7.10;4.50;;;;;;;;;;5007585;28;20065;-65
2022/09/12 05:49:10;;;;;;;10.88;4.75;;;;;;;;;;5008940;28;20560;-65
2022/09/12 05:51:38;;;;;;;10.18;4.72;;;;;;;;;;5005206;28;20041;-65
2022/09/12 05:54:06;;;;;;;10.40;4.72;;;;;;;;;;5003653;28;20040;-65
2022/09/12 05:56:33;;;;;;;8.65;4.35;;;;;;;;;;5002499;28;20034;-65
2022/09/12 05:58:59;;;;;;;6.65;4.38;;;;;;;;;;5007570;28;20025;-65
2022/09/12 06:01:26;;;;;;;8.77;4.50;;;;;;;;;;5009943;28;20061;-64
2022/09/12 06:03:53;;;;;;;6.45;3.95;;;;;;;;;;5004018;28;20022;-65
2022/09/12 06:06:21;;;;;;;9.75;4.43;;;;;;;;;;5004418;28;20030;-65
2022/09/12 06:08:48;;;;;;;7.95;4.25;;;;;;;;;;5006565;28;20053;-65
2022/09/12 06:11:16;;;;;;;8.80;3.95;;;;;;;;;;5002676;28;20069;-65
2022/09/12 06:13:43;;;;;;;8.07;4.13;;;;;;;;;;5004523;28;20045;-65
2022/09/12 06:16:11;;;;;;;6.10;3.88;;;;;;;;;;5034578;28;20038;-65
2022/09/12 06:18:37;;;;;;;6.22;3.80;;;;;;;;;;5034496;28;20045;-65
2022/09/12 06:21:04;;;;;;;8.07;3.80;;;;;;;;;;5034362;28;20513;-65
2022/09/12 06:23:30;;;;;;;5.35;3.88;;;;;;;;;;5034099;28;20030;-65
2022/09/12 06:25:56;;;;;;;8.75;3.60;;;;;;;;;;5034175;28;20390;-65
2022/09/12 06:28:22;;;;;;;4.78;3.28;;;;;;;;;;5033726;28;20025;-65
2022/09/12 06:30:49;;;;;;;7.32;4.13;;;;;;;;;;5033878;28;20528;-65
2022/09/12 06:33:16;;;;;;;7.88;4.10;;;;;;;;;;5033750;28;20036;-65
2022/09/12 06:35:42;;;;;;;5.05;3.67;;;;;;;;;;5033919;28;20026;-65
2022/09/12 06:38:08;;;;;;;5.13;3.38;;;;;;;;;;5033979;28;20113;-65
2022/09/12 06:40:35;;;;;;;7.88;3.70;;;;;;;;;;5033699;28;20469;-65
2022/09/12 06:43:01;;;;;;;6.40;3.13;;;;;;;;;;4995802;28;20129;-65
2022/09/12 06:45:32;;;;;;;7.97;3.65;;;;;;;;;;4993990;28;20027;-65
2022/09/12 06:47:59;;;;;;;6.35;3.92;;;;;;;;;;4994434;28;20101;-65
2022/09/12 06:50:25;;;;;;;4.82;3.30;;;;;;;;;;4994175;28;20026;-65
2022/09/12 06:52:51;;;;;;;6.18;3.03;;;;;;;;;;4994393;28;20557;-65
2022/09/12 06:55:18;;;;;;;7.20;3.38;;;;;;;;;;4994113;28;20022;-65
2022/09/12 06:57:44;;;;;;;4.25;3.22;;;;;;;;;;4994278;28;20045;-65
2022/09/12 07:00:10;;;;;;;6.60;3.70;;;;;;;;;;4993991;28;20124;-65
2022/09/12 07:02:36;;;;;;;5.53;3.47;;;;;;;;;;4993996;28;20085;-65
2022/09/12 07:05:03;;;;;;;7.18;3.33;;;;;;;;;;4994062;28;20467;-65
2022/09/12 07:07:33;;;;;;;4.40;2.63;;;;;;;;;;4993713;28;20061;-65
2022/09/12 07:09:59;;;;;;;3.95;2.97;;;;;;;;;;4994814;28;20481;-65
2022/09/12 07:12:27;;;;;;;9.48;3.30;;;;;;;;;;5013295;28;20034;-65
2022/09/12 07:14:53;;;;;;;9.70;2.97;;;;;;;;;;5013013;28;20110;-65
2022/09/12 07:17:19;;;;;;;7.88;3.22;;;;;;;;;;5013137;28;20066;-65
2022/09/12 07:19:45;;;;;;;6.60;3.22;;;;;;;;;;5013097;28;20025;-65
2022/09/12 07:22:11;;;;;;;4.75;3.20;;;;;;;;;;5011577;28;20028;-65
2022/09/12 07:24:38;;;;;;;7.30;3.20;;;;;;;;;;5003508;28;20359;-65
2022/09/12 07:27:05;;;;;;;4.88;3.33;;;;;;;;;;4997012;28;20034;-65
2022/09/12 07:29:31;;;;;;;8.50;2.80;;;;;;;;;;4999485;28;20028;-64
2022/09/12 07:31:58;;;;;;;5.03;2.90;;;;;;;;;;5007140;28;20095;-64
2022/09/12 07:34:24;;;;;;;9.15;3.53;;;;;;;;;;5002625;28;20437;-64
2022/09/12 07:36:51;;;;;;;8.77;3.95;;;;;;;;;;5011183;28;20029;-64
2022/09/12 07:39:17;;;;;;;5.93;3.10;;;;;;;;;;5013115;28;20045;-64
2022/09/12 07:41:43;;;;;;;9.98;3.70;;;;;;;;;;5012620;28;20030;-64
2022/09/12 07:44:09;;;;;;;7.40;2.90;;;;;;;;;;5012890;28;20034;-64
2022/09/12 07:46:35;;;;;;;9.68;2.83;;;;;;;;;;4998912;28;20505;-64
2022/09/12 07:49:02;;;;;;;4.38;2.97;;;;;;;;;;5006448;28;20030;-65
2022/09/12 07:51:28;;;;;;;7.43;3.08;;;;;;;;;;4992703;28;20478;-65
2022/09/12 07:53:55;;;;;;;4.70;2.65;;;;;;;;;;5001613;28;20030;-65
2022/09/12 07:56:21;;;;;;;3.13;2.55;;;;;;;;;;5006673;28;20089;-65
2022/09/12 07:58:48;;;;;;;7.93;2.65;;;;;;;;;;5012455;28;20026;-65
2022/09/12 08:01:24;;;;;;;7.43;2.53;;;;;;;;;;5012986;28;20421;-65
2022/09/12 08:03:56;;;;;;;5.18;3.55;;;;;;;;;;5012749;28;20053;-65
2022/09/12 08:06:25;;;;;;;5.32;2.70;;;;;;;;;;5017317;28;20021;-65
2022/09/12 08:08:52;;;;;;;5.13;2.50;;;;;;;;;;5011046;28;20544;-64
2022/09/12 08:11:19;;;;;;;5.50;2.53;;;;;;;;;;5013264;28;20055;-65
2022/09/12 08:13:45;;;;;;;6.82;2.22;;;;;;;;;;5006395;28;20562;-65
2022/09/12 08:16:12;;;;;;;6.25;2.80;;;;;;;;;;5011448;28;20029;-65
2022/09/12 08:18:39;;;;;;;5.07;2.67;;;;;;;;;;5011377;28;20084;-64
2022/09/12 08:21:07;;;;;;;6.05;2.53;;;;;;;;;;5011629;28;20069;-65
2022/09/12 08:23:33;;;;;;;5.80;2.38;;;;;;;;;;5011112;28;20026;-65
2022/09/12 08:26:03;;;;;;;3.35;2.00;;;;;;;;;;5011977;28;20022;-65
2022/09/12 08:28:29;;;;;;;3.65;2.22;;;;;;;;;;5012350;28;20517;-65
2022/09/12 08:31:06;;;;;;;5.68;2.10;;;;;;;;;;5012146;28;20041;-65
2022/09/12 08:33:33;;;;;;;4.30;1.90;;;;;;;;;;5010496;28;20080;-65
2022/09/12 08:36:19;;;;;;;7.78;1.95;;;;;;;;;;5009901;28;20041;-65
2022/09/12 08:38:46;;;;;;;6.00;1.95;;;;;;;;;;5001744;28;20038;-65
2022/09/12 08:41:18;;;;;;;8.52;2.42;;;;;;;;;;5009257;28;20551;-65
2022/09/12 08:43:45;;;;;;;3.85;2.03;;;;;;;;;;5008833;28;20022;-65
2022/09/12 08:46:17;;;;;;;4.55;1.80;;;;;;;;;;5008229;28;20477;-65
2022/09/12 08:48:45;;;;;;;3.63;2.05;;;;;;;;;;5003050;28;20029;-65
2022/09/12 08:51:13;;;;;;;4.03;2.10;;;;;;;;;;5003048;28;20036;-66
2022/09/12 08:53:41;;;;;;;4.47;1.75;;;;;;;;;;4995587;28;20549;-65
2022/09/12 08:56:10;;;;;;;8.75;2.20;;;;;;;;;;5006243;28;20438;-65
2022/09/12 08:58:40;;;;;;;4.90;1.88;;;;;;;;;;4999642;28;20035;-65
2022/09/12 09:01:09;;;;;;;3.38;1.50;;;;;;;;;;5002254;28;20049;-65
2022/09/12 09:03:47;;;;;;;3.15;1.83;;;;;;;;;;4996946;28;20034;-65
2022/09/12 09:06:14;;;;;;;5.43;1.70;;;;;;;;;;5002455;28;20014;-64
2022/09/12 09:08:46;;;;;;;6.13;1.73;;;;;;;;;;5000648;28;20132;-65
2022/09/12 09:11:12;;;;;;;;;;;;;;;;;;4999629;28;20037;-65
2022/09/12 09:16:42;;;;;;;7.70;1.50;;;;;;;;;;4999535;28;20061;-65
2022/09/12 09:19:12;;;;;;;7.63;1.65;;;;;;;;;;5002402;28;20030;-65
2022/09/12 09:21:41;;;;;;;6.72;1.52;;;;;;;;;;5008976;28;20029;-65
2022/09/12 09:24:12;;;;;;;3.22;1.40;;;;;;;;;;5003487;28;20033;-65
2022/09/12 09:26:41;;;;;;;3.55;1.30;;;;;;;;;;5003961;28;20026;-65
2022/09/12 09:29:16;;;;;;;5.85;1.42;;;;;;;;;;4999993;28;20025;-65
2022/09/12 09:31:44;;;;;;;4.00;1.30;;;;;;;;;;5002073;28;20071;-65
2022/09/12 09:34:33;;;;;;;2.85;1.48;;;;;;;;;;5017506;28;20034;-65
2022/09/12 09:37:09;;;;;;;3.47;1.77;;;;;;;;;;5002161;28;20030;-65
2022/09/12 09:39:38;;;;;;;5.07;1.45;;;;;;;;;;5002512;28;20092;-65
2022/09/12 09:42:08;;;;;;;2.38;1.35;;;;;;;;;;5003882;28;20031;-65
2022/09/12 09:44:34;;;;;;;3.45;1.10;;;;;;;;;;5002220;28;20405;-65
2022/09/12 09:47:00;;;;;;;4.20;1.00;;;;;;;;;;5010932;28;20026;-65
2022/09/12 09:49:27;;;;;;;2.75;1.42;;;;;;;;;;5005872;28;20061;-65
2022/09/12 09:51:54;;;;;;;5.35;1.85;;;;;;;;;;5010485;28;20033;-65
2022/09/12 09:54:25;;;;;;;3.90;1.25;;;;;;;;;;5009020;28;20049;-65
2022/09/12 09:56:52;;;;;;;5.00;1.50;;;;;;;;;;5002968;28;20026;-65
2022/09/12 09:59:19;;;;;;;8.55;1.40;;;;;;;;;;5002056;28;20065;-64
2022/09/12 10:01:47;;;;;;;1.65;1.08;;;;;;;;;;5008320;28;20030;-65
2022/09/12 10:04:24;;;;;;;5.60;1.42;;;;;;;;;;5041606;28;20389;-65
2022/09/12 10:06:52;;;;;;;5.85;1.40;;;;;;;;;;5006267;28;20073;-65
2022/09/12 10:09:19;;;;;;;5.78;1.50;;;;;;;;;;5002116;28;20581;-65
2022/09/12 10:11:46;;;;;;;5.50;1.58;;;;;;;;;;5001585;28;20113;-65
2022/09/12 10:14:29;;;;;;;6.28;1.50;;;;;;;;;;5006060;28;20402;-65
2022/09/12 10:16:56;;;;;;;;;;;;;;;;;;5002460;28;20026;-65
2022/09/12 10:19:24;;;;;;;7.82;1.40;;;;;;;;;;5005130;28;19967;-65
2022/09/12 10:21:51;;;;;;;4.80;1.23;;;;;;;;;;5005988;28;20034;-65
2022/09/12 10:24:26;;;;;;;5.80;1.27;;;;;;;;;;5012845;28;20029;-65
2022/09/12 10:26:55;;;;;;;2.67;1.13;;;;;;;;;;5004862;28;20020;-65
2022/09/12 10:29:24;;;;;;;4.32;1.17;;;;;;;;;;5004315;28;20045;-65
2022/09/12 10:31:53;;;;;;;4.35;1.30;;;;;;;;;;5001283;28;20109;-65
2022/09/12 10:34:29;;;;;;;2.88;1.30;;;;;;;;;;5003245;28;20461;-65
2022/09/12 10:37:00;;;;;;;4.50;1.08;;;;;;;;;;5008193;28;20083;-65
2022/09/12 10:39:26;;;;;;;4.10;1.27;;;;;;;;;;5003203;28;20525;-65
2022/09/12 10:41:52;;;;;;;4.82;1.48;;;;;;;;;;5003333;28;20117;-65
2022/09/12 10:44:27;;;;;;;2.35;1.10;;;;;;;;;;5003436;28;20021;-65
2022/09/12 10:46:53;;;;;;;4.28;1.48;;;;;;;;;;4999981;28;20030;-65
2022/09/12 10:49:28;;;;;;;11.27;1.38;;;;;;;;;;5009348;28;20037;-65
2022/09/12 10:51:55;;;;;;;9.63;1.40;;;;;;;;;;5008961;28;20038;-65
2022/09/12 10:54:24;;;;;;;6.53;1.40;;;;;;;;;;5009752;28;20022;-65
2022/09/12 10:57:05;;;;;;;1.95;1.10;;;;;;;;;;5012432;28;20044;-65
2022/09/12 10:59:41;;;;;;;3.42;1.40;;;;;;;;;;5009795;28;20029;-65
2022/09/12 11:02:25;;;;;;;3.17;1.17;;;;;;;;;;5003150;28;20057;-65
2022/09/12 11:04:51;;;;;;;4.60;1.33;;;;;;;;;;5009285;28;20029;-65
2022/09/12 11:07:26;;;;;;;5.15;1.40;;;;;;;;;;5008288;28;20026;-65
2022/09/12 11:09:56;;;;;;;6.55;1.60;;;;;;;;;;5005260;28;20399;-65
2022/09/12 11:12:25;;;;;;;2.83;1.13;;;;;;;;;;5004187;28;20065;-65
2022/09/12 11:14:51;;;;;;;5.15;1.30;;;;;;;;;;5012020;28;20018;-65
2022/09/12 11:17:21;;;;;;;7.10;1.25;;;;;;;;;;5006070;28;20383;-65
2022/09/12 11:20:07;;;;;;;9.40;1.30;;;;;;;;;;5009081;28;20646;-65
2022/09/12 11:22:54;;;;;;;4.35;1.40;;;;;;;;;;5007812;28;20046;-65
2022/09/12 11:25:38;;;;;;;5.22;1.38;;;;;;;;;;5003975;28;20029;-65
2022/09/12 11:28:23;;;;;;;9.95;1.67;;;;;;;;;;5008129;28;20065;-65
2022/09/12 11:31:10;;;;;;;2.58;1.00;;;;;;;;;;5004800;28;20022;-65
2022/09/12 11:33:38;;;;;;;3.95;1.17;;;;;;;;;;4969004;28;20066;-65
2022/09/12 11:36:06;;;;;;;5.63;1.52;;;;;;;;;;4970294;28;20035;-65
2022/09/12 11:38:52;;;;;;;4.10;1.45;;;;;;;;;;4966530;28;20034;-65
2022/09/12 11:41:20;;;;;;;4.60;1.05;;;;;;;;;;4969915;28;20042;-65
2022/09/12 11:43:50;;;;;;;4.55;0.90;;;;;;;;;;4969053;28;21088;-65
2022/09/12 11:46:35;;;;;;;5.00;0.93;;;;;;;;;;4975313;28;20719;-65
2022/09/12 11:49:12;;;;;;;4.25;1.58;;;;;;;;;;4968624;28;20545;-65
2022/09/12 11:51:55;;;;;;;1.63;0.95;;;;;;;;;;4967458;28;20053;-65
2022/09/12 11:54:27;;;;;;;3.85;1.23;;;;;;;;;;4968835;28;20031;-65
2022/09/12 11:57:12;;;;;;;5.90;1.35;;;;;;;;;;4969466;28;20035;-65
2022/09/12 11:59:42;;;;;;;2.80;1.10;;;;;;;;;;4968873;28;20045;-65
2022/09/12 12:02:13;;;;;;;3.38;1.45;;;;;;;;;;4968490;28;20122;-65
2022/09/12 12:04:44;;;;;;;6.07;0.93;;;;;;;;;;4968285;28;20443;-65
2022/09/12 12:07:11;;;;;;;8.07;1.13;;;;;;;;;;4969983;28;20041;-65
2022/09/12 12:09:46;;;;;;;3.67;0.95;;;;;;;;;;4971788;28;20463;-65
2022/09/12 12:12:15;;;;;;;1.52;1.00;;;;;;;;;;5010806;28;20053;-65
2022/09/12 12:14:43;;;;;;;4.65;1.00;;;;;;;;;;5014957;28;20057;-65
2022/09/12 12:17:17;;;;;;;6.28;1.15;;;;;;;;;;5011673;28;20040;-65
2022/09/12 12:19:44;;;;;;;2.67;1.02;;;;;;;;;;5011424;28;20489;-65
2022/09/12 12:22:31;;;;;;;8.13;1.10;;;;;;;;;;5012125;28;20105;-65
2022/09/12 12:25:00;;;;;;;1.70;0.95;;;;;;;;;;5010349;28;20065;-65
2022/09/12 12:27:45;;;;;;;2.75;1.05;;;;;;;;;;5012056;28;20034;-65
2022/09/12 12:30:30;;;;;;;6.45;1.42;;;;;;;;;;5011899;28;20084;-65
2022/09/12 12:33:05;;;;;;;2.67;0.90;;;;;;;;;;5010913;28;20029;-65
2022/09/12 12:35:40;;;;;;;6.28;1.20;;;;;;;;;;5002180;28;20029;-65
2022/09/12 12:38:25;;;;;;;6.18;1.23;;;;;;;;;;5011362;28;20033;-65
2022/09/12 12:40:51;;;;;;;3.83;1.08;;;;;;;;;;5009359;28;20018;-65
2022/09/12 12:43:31;;;;;;;3.42;1.13;;;;;;;;;;5005436;28;20026;-65
2022/09/12 12:45:59;;;;;;;10.15;1.85;;;;;;;;;;5022843;28;20037;-65
2022/09/12 12:48:25;;;;;;;9.48;1.13;;;;;;;;;;5007517;28;20018;-65
2022/09/12 12:50:52;;;;;;;2.80;0.98;;;;;;;;;;5004347;28;20413;-65
2022/09/12 12:53:21;;;;;;;3.97;1.65;;;;;;;;;;4999656;28;20151;-65
2022/09/12 12:55:49;;;;;;;2.40;1.00;;;;;;;;;;5009402;28;20033;-65
2022/09/12 12:58:27;;;;;;;5.10;1.38;;;;;;;;;;5001549;28;20076;-65
2022/09/12 13:01:09;;;;;;;6.78;1.30;;;;;;;;;;4996688;28;20018;-65
2022/09/12 13:03:36;;;;;;;5.15;1.20;;;;;;;;;;5002032;28;20026;-66
2022/09/12 13:06:06;;;;;;;6.40;1.17;;;;;;;;;;5007713;28;20027;-65
2022/09/12 13:08:38;;;;;;;2.45;1.00;;;;;;;;;;5007479;28;20077;-65
2022/09/12 13:11:08;;;;;;;4.13;1.25;;;;;;;;;;5009345;28;20514;-66
2022/09/12 13:13:56;;;;;;;3.33;1.27;;;;;;;;;;5007291;28;20026;-66
2022/09/12 13:16:33;;;;;;;5.20;1.30;;;;;;;;;;5010367;28;20038;-65
2022/09/12 13:19:13;;;;;;;4.47;1.30;;;;;;;;;;5003181;28;20036;-66
2022/09/12 13:21:39;;;;;;;1.83;1.33;;;;;;;;;;5007167;28;20031;-66
2022/09/12 13:24:13;;;;;;;4.45;1.27;;;;;;;;;;5011252;28;20010;-66
2022/09/12 13:26:45;;;;;;;3.30;1.08;;;;;;;;;;5002163;28;20027;-65
2022/09/12 13:29:22;;;;;;;3.30;1.42;;;;;;;;;;5004875;28;20391;-65
2022/09/12 13:31:54;;;;;;;4.18;1.45;;;;;;;;;;5012867;28;20038;-66
2022/09/12 13:34:25;;;;;;;4.70;1.30;;;;;;;;;;5001275;28;20018;-65
2022/09/12 13:36:54;;;;;;;5.43;1.58;;;;;;;;;;5003565;28;20030;-68
2022/09/12 13:39:20;;;;;;;3.92;1.40;;;;;;;;;;5014065;28;20034;-68
2022/09/12 13:42:06;;;;;;;3.40;1.23;;;;;;;;;;5017535;28;20041;-66
2022/09/12 13:44:37;;;;;;;6.90;1.35;;;;;;;;;;5012621;28;20029;-65
2022/09/12 13:47:03;;;;;;;6.25;1.60;;;;;;;;;;5000197;28;20026;-65
2022/09/12 13:49:30;;;;;;;4.80;1.40;;;;;;;;;;5008354;28;20080;-65
2022/09/12 13:52:16;;;;;;;5.15;1.90;;;;;;;;;;5011175;28;20109;-65
2022/09/12 13:54:44;;;;;;;4.68;1.52;;;;;;;;;;5005373;28;20325;-65
2022/09/12 13:57:26;;;;;;;5.90;1.67;;;;;;;;;;5011028;28;20037;-65
2022/09/12 13:59:54;;;;;;;7.45;1.90;;;;;;;;;;5001346;28;20033;-65
2022/09/12 14:02:22;;;;;;;5.45;1.67;;;;;;;;;;4996346;28;20029;-65
2022/09/12 14:07:38;;;;;;;7.53;1.98;;;;;;;;;;5000973;28;20029;-66
2022/09/12 14:10:06;;;;;;;6.00;1.60;;;;;;;;;;5012913;28;20092;-66
2022/09/12 14:12:42;;;;;;;10.18;2.20;;;;;;;;;;5007825;28;20062;-66
2022/09/12 14:15:22;;;;;;;11.48;2.72;;;;;;;;;;5001731;28;20042;-66
2022/09/12 14:17:53;;;;;;;15.88;3.17;;;;;;;;;;5007667;28;20045;-65
2022/09/12 14:20:22;;;;;;;13.82;3.05;;;;;;;;;;5012758;28;20116;-65
2022/09/12 14:22:49;;;;;;;13.65;3.45;;;;;;;;;;5007408;28;20026;-65
2022/09/12 14:25:18;;;;;;;19.35;3.72;;;;;;;;;;5005941;28;20071;-65
2022/09/12 14:27:46;;;;;;;16.10;3.75;;;;;;;;;;5009830;28;20018;-65
2022/09/12 14:30:21;;;;;;;15.00;4.53;;;;;;;;;;5011029;28;20548;-65
2022/09/12 14:33:16;;;;;;;18.00;4.32;;;;;;;;;;5007512;28;20089;-65
2022/09/12 14:35:47;;;;;;;15.15;4.25;;;;;;;;;;5008519;28;21074;-65
2022/09/12 14:38:15;;;;;;;14.38;4.50;;;;;;;;;;5009498;28;20041;-65
2022/09/12 14:40:50;;;;;;;10.73;3.60;;;;;;;;;;5000040;28;20073;-65
2022/09/12 14:43:24;;;;;;;5.68;3.22;;;;;;;;;;5006821;28;20034;-65
2022/09/12 14:45:54;;;;;;;5.47;2.83;;;;;;;;;;5002443;28;20026;-65
2022/09/12 14:48:20;;;;;;;7.22;2.92;;;;;;;;;;5004444;28;20030;-65
2022/09/12 14:50:51;;;;;;;5.78;2.70;;;;;;;;;;5005937;28;20382;-66
2022/09/12 14:53:17;;;;;;;10.38;3.47;;;;;;;;;;5009329;28;20064;-66
2022/09/12 14:56:01;;;;;;;12.50;3.88;;;;;;;;;;5011104;28;20041;-65
2022/09/12 14:58:27;;;;;;;9.32;3.60;;;;;;;;;;5014512;28;20389;-66
2022/09/12 15:00:54;;;;;;;5.50;3.90;;;;;;;;;;5009892;28;20109;-66
2022/09/12 15:03:24;;;;;;;9.40;4.15;;;;;;;;;;5006531;28;20031;-66